Time;durP1;ratioP1;P1;durP2;ratioP2;P2;SDS_P1;SDS_P2;PMS_P1;PMS_P2;Temp;Humidity;BMP_temperature;BMP_pressure;BME280_temperature;BME280_humidity;BME280_pressure;Samples;Min_cycle;Max_cycle;Signal;HPM_P1;HPM_P2
2021/09/21 00:00:22;;;;;;;5.70;5.20;;;14.10;99.90;;;;;;5033855;28;20668;-71
2021/09/21 00:02:48;;;;;;;6.13;5.53;;;14.10;99.90;;;;;;5034520;28;20179;-71
2021/09/21 00:05:13;;;;;;;5.80;5.20;;;14.10;99.90;;;;;;5029638;28;20229;-71
2021/09/21 00:07:39;;;;;;;6.63;5.17;;;14.10;99.90;;;;;;5025678;28;20210;-71
2021/09/21 00:10:06;;;;;;;6.90;5.17;;;14.00;99.90;;;;;;5014213;28;20179;-71
2021/09/21 00:12:32;;;;;;;5.97;5.30;;;14.00;99.90;;;;;;5014496;28;20176;-72
2021/09/21 00:14:58;;;;;;;6.93;5.57;;;14.00;99.90;;;;;;5014443;28;20430;-71
2021/09/21 00:17:23;;;;;;;6.47;5.87;;;13.90;99.90;;;;;;5014384;28;20481;-71
2021/09/21 00:19:49;;;;;;;6.17;4.90;;;13.90;99.90;;;;;;5014161;28;20199;-71
2021/09/21 00:22:14;;;;;;;9.67;5.87;;;13.80;99.90;;;;;;5015251;28;20740;-71
2021/09/21 00:24:40;;;;;;;7.70;5.57;;;13.80;99.90;;;;;;5014611;28;20172;-71
2021/09/21 00:27:05;;;;;;;6.47;5.80;;;13.80;99.90;;;;;;4997100;28;20512;-71
2021/09/21 00:29:31;;;;;;;6.00;5.37;;;13.70;99.90;;;;;;4996232;28;20279;-71
2021/09/21 00:32:00;;;;;;;5.57;4.97;;;13.70;99.90;;;;;;5013823;28;20215;-71
2021/09/21 00:34:42;;;;;;;6.00;5.37;;;13.70;99.90;;;;;;5013978;28;20173;-71
2021/09/21 00:37:11;;;;;;;7.23;4.80;;;13.70;99.90;;;;;;5015521;28;20800;-71
2021/09/21 00:39:38;;;;;;;6.90;5.47;;;13.70;99.90;;;;;;5024376;28;20900;-71
2021/09/21 00:42:04;;;;;;;6.20;5.33;;;13.70;99.90;;;;;;5013806;28;20514;-70
2021/09/21 00:44:30;;;;;;;7.07;5.13;;;13.70;99.90;;;;;;5032433;28;20504;-72
2021/09/21 00:46:56;;;;;;;6.40;5.27;;;13.70;99.90;;;;;;5033697;28;20425;-71
2021/09/21 00:49:22;;;;;;;6.53;5.50;;;13.80;99.90;;;;;;5015584;28;20427;-71
2021/09/21 00:51:47;;;;;;;7.37;5.87;;;13.80;99.90;;;;;;5033220;28;20218;-72
2021/09/21 00:54:13;;;;;;;6.23;5.30;;;13.80;99.90;;;;;;5016466;28;20603;-71
2021/09/21 00:56:40;;;;;;;6.03;5.43;;;13.70;99.90;;;;;;5033099;28;20249;-71
2021/09/21 00:59:06;;;;;;;5.90;5.30;;;13.80;99.90;;;;;;5032813;28;20425;-71
2021/09/21 01:01:31;;;;;;;5.30;4.90;;;13.80;99.90;;;;;;5033880;28;20476;-72
2021/09/21 01:03:57;;;;;;;5.47;4.97;;;13.80;99.90;;;;;;5033786;28;20175;-71
2021/09/21 01:06:22;;;;;;;5.80;5.17;;;13.70;99.90;;;;;;5033617;28;20187;-72
2021/09/21 01:08:48;;;;;;;5.63;4.90;;;13.70;99.90;;;;;;5015898;28;20175;-71
2021/09/21 01:11:15;;;;;;;6.03;5.10;;;13.50;99.90;;;;;;5033227;28;20412;-71
2021/09/21 01:13:41;;;;;;;5.27;4.80;;;13.50;99.90;;;;;;5031639;28;20168;-71
2021/09/21 01:16:08;;;;;;;5.67;5.00;;;13.50;99.90;;;;;;5033409;28;20417;-71
2021/09/21 01:18:34;;;;;;;6.20;5.00;;;13.40;99.90;;;;;;5033609;28;20769;-70
2021/09/21 01:21:05;;;;;;;5.83;5.23;;;13.30;99.90;;;;;;5033210;28;20465;-71
2021/09/21 01:23:42;;;;;;;10.00;5.00;;;13.30;99.90;;;;;;5016128;28;20415;-71
2021/09/21 01:26:07;;;;;;;5.00;4.60;;;13.20;99.90;;;;;;5015807;28;20429;-71
2021/09/21 01:28:33;;;;;;;5.07;4.63;;;13.20;99.90;;;;;;5015374;28;20419;-71
2021/09/21 01:30:58;;;;;;;5.57;4.80;;;13.10;99.90;;;;;;5027811;28;20219;-71
2021/09/21 01:33:24;;;;;;;5.57;5.07;;;13.10;99.90;;;;;;5013648;28;20176;-71
2021/09/21 01:35:50;;;;;;;5.60;5.10;;;13.10;99.90;;;;;;5021646;28;20222;-70
2021/09/21 01:38:15;;;;;;;5.50;5.00;;;13.10;99.90;;;;;;5015196;28;20190;-71
2021/09/21 01:40:41;;;;;;;5.67;4.90;;;13.20;99.90;;;;;;5022572;28;20211;-71
2021/09/21 01:43:06;;;;;;;6.07;5.50;;;13.20;99.90;;;;;;5027824;28;20182;-71
2021/09/21 01:45:32;;;;;;;6.03;5.43;;;13.20;99.90;;;;;;5017273;28;20221;-71
2021/09/21 01:47:58;;;;;;;5.93;5.33;;;13.10;99.90;;;;;;5015757;28;20184;-71
2021/09/21 01:53:16;;;;;;;5.37;4.87;;;13.00;99.90;;;;;;5052572;28;20437;-71
2021/09/21 01:58:19;;;;;;;5.80;5.20;;;12.90;99.90;;;;;;5043293;28;20421;-71
2021/09/21 02:00:46;;;;;;;5.23;4.73;;;12.90;99.90;;;;;;5058557;28;20211;-71
2021/09/21 02:03:11;;;;;;;6.73;4.80;;;12.90;99.90;;;;;;5056830;28;20440;-72
2021/09/21 02:05:38;;;;;;;6.40;5.67;;;12.80;99.90;;;;;;5036456;28;20903;-71
2021/09/21 02:08:04;;;;;;;6.50;5.10;;;12.80;99.90;;;;;;5038285;28;20167;-71
2021/09/21 02:10:29;;;;;;;5.77;5.27;;;12.80;99.90;;;;;;5037154;28;20429;-71
2021/09/21 02:12:55;;;;;;;5.90;5.20;;;12.80;99.90;;;;;;5036330;28;20182;-71
2021/09/21 02:15:21;;;;;;;5.63;5.13;;;12.80;99.90;;;;;;5037838;28;20194;-71
2021/09/21 02:17:47;;;;;;;5.70;5.17;;;12.90;99.90;;;;;;5038133;28;20258;-71
2021/09/21 02:20:14;;;;;;;5.70;5.20;;;12.90;99.90;;;;;;5036937;28;20540;-72
2021/09/21 02:22:40;;;;;;;6.73;5.50;;;12.90;99.90;;;;;;5019143;28;23485;-72
2021/09/21 02:25:06;;;;;;;7.83;5.23;;;12.80;99.90;;;;;;5028241;28;20430;-71
2021/09/21 02:27:32;;;;;;;5.37;4.87;;;12.80;99.90;;;;;;5026189;28;20428;-71
2021/09/21 02:29:57;;;;;;;7.10;6.27;;;12.80;99.90;;;;;;5020210;28;20422;-72
2021/09/21 02:32:23;;;;;;;6.20;5.60;;;12.70;99.90;;;;;;5029292;28;20207;-72
2021/09/21 02:34:49;;;;;;;7.37;5.30;;;12.70;99.90;;;;;;5027280;28;20256;-72
2021/09/21 02:37:16;;;;;;;6.70;5.90;;;12.70;99.90;;;;;;5018035;28;20179;-71
2021/09/21 02:39:42;;;;;;;7.10;5.07;;;12.70;99.90;;;;;;5029046;28;20183;-71
2021/09/21 02:42:07;;;;;;;5.50;5.10;;;12.70;99.90;;;;;;5025727;28;20451;-71
2021/09/21 02:44:34;;;;;;;6.00;5.40;;;12.70;99.90;;;;;;5029265;28;20861;-71
2021/09/21 02:47:00;;;;;;;5.67;5.17;;;12.70;99.90;;;;;;5021280;28;20171;-71
2021/09/21 02:49:26;;;;;;;5.97;5.37;;;12.70;99.90;;;;;;5025391;28;20422;-72
2021/09/21 02:51:52;;;;;;;5.57;5.07;;;12.60;99.90;;;;;;5028638;28;20475;-71
2021/09/21 02:54:18;;;;;;;5.57;5.07;;;12.50;99.90;;;;;;5016767;28;20442;-71
2021/09/21 02:56:43;;;;;;;6.80;5.87;;;12.50;99.90;;;;;;5017059;28;20648;-71
2021/09/21 02:59:09;;;;;;;6.67;5.77;;;12.40;99.90;;;;;;5026781;28;20191;-71
2021/09/21 03:01:34;;;;;;;6.10;5.20;;;12.40;99.90;;;;;;5015973;28;20208;-71
2021/09/21 03:04:04;;;;;;;7.87;5.50;;;12.30;99.90;;;;;;5016091;28;20172;-70
2021/09/21 03:06:38;;;;;;;6.13;5.53;;;12.20;99.90;;;;;;5015936;28;20525;-70
2021/09/21 03:09:14;;;;;;;6.10;5.40;;;12.30;99.90;;;;;;5015738;28;20752;-71
2021/09/21 03:11:42;;;;;;;6.90;6.13;;;12.30;99.90;;;;;;5015619;28;20465;-71
2021/09/21 03:19:24;;;;;;;6.17;5.40;;;12.20;99.90;;;;;;5015373;28;20513;-71
2021/09/21 03:21:53;;;;;;;6.53;6.00;;;12.20;99.90;;;;;;5015949;28;20492;-70
2021/09/21 03:24:19;;;;;;;8.10;7.10;;;12.30;99.90;;;;;;5015032;28;20463;-71
2021/09/21 03:26:46;;;;;;;7.77;6.90;;;12.30;99.90;;;;;;5015573;28;20199;-71
2021/09/21 03:29:12;;;;;;;7.00;6.10;;;12.30;99.90;;;;;;5015521;28;20411;-72
2021/09/21 03:31:37;;;;;;;6.77;6.07;;;12.30;99.90;;;;;;5016186;28;20523;-71
2021/09/21 03:34:03;;;;;;;6.83;6.23;;;12.30;99.90;;;;;;4997767;28;20654;-72
2021/09/21 03:36:28;;;;;;;7.50;6.20;;;12.20;99.90;;;;;;5014926;28;20164;-71
2021/09/21 03:38:54;;;;;;;6.80;6.10;;;12.00;99.90;;;;;;5014671;28;20176;-71
2021/09/21 03:41:19;;;;;;;8.27;6.50;;;11.80;99.90;;;;;;5014757;28;20207;-71
2021/09/21 03:43:45;;;;;;;9.23;6.97;;;11.80;99.90;;;;;;5014785;28;20618;-71
2021/09/21 03:46:11;;;;;;;7.10;6.17;;;11.70;99.90;;;;;;5014731;28;20176;-72
2021/09/21 03:48:37;;;;;;;6.90;6.30;;;11.60;99.90;;;;;;5027092;28;20190;-72
2021/09/21 03:51:02;;;;;;;8.30;6.00;;;11.50;99.90;;;;;;5036921;28;20460;-72
2021/09/21 03:53:28;;;;;;;11.67;7.43;;;11.50;99.90;;;;;;5043295;28;20199;-71
2021/09/21 03:55:53;;;;;;;7.87;6.70;;;11.60;99.90;;;;;;5035257;28;20258;-71
2021/09/21 03:58:19;;;;;;;9.10;7.00;;;11.70;99.90;;;;;;5031097;28;20191;-71
2021/09/21 04:00:45;;;;;;;7.80;6.80;;;11.70;99.90;;;;;;5023527;28;20279;-71
2021/09/21 04:03:10;;;;;;;8.23;7.37;;;11.80;99.90;;;;;;5015739;28;20629;-71
2021/09/21 04:05:36;;;;;;;8.47;7.23;;;11.80;99.90;;;;;;5024966;28;20179;-71
2021/09/21 04:08:01;;;;;;;7.63;6.90;;;11.80;99.90;;;;;;5024531;28;20683;-72
2021/09/21 04:10:27;;;;;;;9.30;6.67;;;11.60;99.90;;;;;;5023961;28;20281;-71
2021/09/21 04:12:52;;;;;;;8.50;7.70;;;11.50;99.90;;;;;;5023914;28;20183;-71
2021/09/21 04:15:18;;;;;;;7.77;6.97;;;11.50;99.90;;;;;;5024644;28;20530;-71
2021/09/21 04:17:44;;;;;;;7.90;7.10;;;11.40;99.90;;;;;;5026538;28;20645;-71
2021/09/21 04:20:10;;;;;;;8.37;7.43;;;11.30;99.90;;;;;;5003961;28;20233;-72
2021/09/21 04:22:37;;;;;;;9.13;7.00;;;11.30;99.90;;;;;;5013875;28;20176;-71
2021/09/21 04:25:03;;;;;;;7.00;6.30;;;11.40;99.90;;;;;;5014782;28;20579;-72
2021/09/21 04:27:29;;;;;;;10.77;8.10;;;11.40;99.90;;;;;;5021067;28;20542;-72
2021/09/21 04:29:59;;;;;;;7.27;6.57;;;11.50;99.90;;;;;;5009203;28;21055;-72
2021/09/21 04:32:25;;;;;;;7.80;7.10;;;11.50;99.90;;;;;;5021113;28;20289;-71
2021/09/21 04:34:50;;;;;;;8.40;6.37;;;11.50;99.90;;;;;;5031344;28;20479;-72
2021/09/21 04:37:16;;;;;;;7.80;5.97;;;11.40;99.90;;;;;;5030413;28;20256;-72
2021/09/21 04:39:42;;;;;;;9.27;6.77;;;11.40;99.90;;;;;;5031072;28;20203;-72
2021/09/21 04:42:11;;;;;;;7.60;6.73;;;11.40;99.90;;;;;;4997932;28;20474;-70
2021/09/21 04:44:37;;;;;;;9.03;6.70;;;11.40;99.90;;;;;;5031721;28;20206;-72
2021/09/21 04:47:04;;;;;;;8.83;6.73;;;11.50;99.90;;;;;;5020508;28;20864;-70
2021/09/21 04:49:30;;;;;;;10.20;7.70;;;11.50;99.90;;;;;;5031130;28;20442;-72
2021/09/21 04:51:56;;;;;;;8.13;7.33;;;11.50;99.90;;;;;;5017639;28;20479;-73
2021/09/21 04:54:21;;;;;;;8.53;7.53;;;11.30;99.90;;;;;;5013193;28;20461;-72
2021/09/21 04:56:47;;;;;;;7.77;6.63;;;11.20;99.90;;;;;;5046786;28;20217;-72
2021/09/21 04:59:12;;;;;;;7.90;6.60;;;11.00;99.90;;;;;;5032543;28;20201;-72
2021/09/21 05:01:38;;;;;;;8.23;7.30;;;11.00;99.90;;;;;;5031572;28;20259;-71
2021/09/21 05:04:04;;;;;;;8.00;7.07;;;11.00;99.90;;;;;;5013510;28;20657;-71
2021/09/21 05:06:30;;;;;;;9.17;8.27;;;11.00;99.90;;;;;;5012733;28;20688;-72
2021/09/21 05:08:55;;;;;;;6.93;6.30;;;11.10;99.90;;;;;;5035664;28;20441;-70
2021/09/21 05:11:21;;;;;;;16.43;7.07;;;11.20;99.90;;;;;;5045164;28;20233;-70
2021/09/21 05:13:46;;;;;;;8.63;6.07;;;11.20;99.90;;;;;;5036652;28;20199;-71
2021/09/21 05:16:12;;;;;;;7.10;6.10;;;11.20;99.90;;;;;;5022522;28;20222;-71
2021/09/21 05:18:38;;;;;;;7.90;6.60;;;11.30;99.90;;;;;;5005369;28;20238;-70
2021/09/21 05:21:03;;;;;;;6.73;5.67;;;11.30;99.90;;;;;;5034237;28;20254;-71
2021/09/21 05:23:29;;;;;;;7.80;5.87;;;11.30;99.90;;;;;;5031198;28;20612;-70
2021/09/21 05:25:55;;;;;;;6.93;6.17;;;11.30;99.90;;;;;;5025895;28;20246;-71
2021/09/21 05:28:20;;;;;;;11.10;6.57;;;11.40;99.90;;;;;;5051807;28;20283;-70
2021/09/21 05:30:46;;;;;;;11.93;7.03;;;11.30;99.90;;;;;;5052434;28;20849;-70
2021/09/21 05:33:12;;;;;;;7.73;6.93;;;11.10;99.90;;;;;;5047958;28;20202;-70
2021/09/21 05:35:37;;;;;;;7.10;6.40;;;10.90;99.90;;;;;;5013303;28;20203;-71
2021/09/21 05:38:03;;;;;;;8.00;6.47;;;10.90;99.90;;;;;;5016082;28;20286;-71
2021/09/21 05:40:28;;;;;;;6.27;5.67;;;10.90;99.90;;;;;;5005262;28;20233;-71
2021/09/21 05:42:55;;;;;;;7.00;6.30;;;10.90;99.90;;;;;;5035894;28;20226;-71
2021/09/21 05:45:21;;;;;;;6.83;6.23;;;11.00;99.90;;;;;;5021646;28;20200;-71
2021/09/21 05:47:47;;;;;;;8.90;6.90;;;11.10;99.90;;;;;;5016673;28;20454;-72
2021/09/21 05:50:14;;;;;;;8.23;6.67;;;11.10;99.90;;;;;;5015427;28;20522;-73
2021/09/21 05:52:40;;;;;;;9.40;7.70;;;11.20;99.90;;;;;;5021162;28;20568;-71
2021/09/21 05:55:07;;;;;;;7.93;7.07;;;11.20;99.90;;;;;;5031934;28;20430;-70
2021/09/21 05:57:33;;;;;;;6.43;5.83;;;11.20;99.90;;;;;;5016782;28;20489;-72
2021/09/21 05:59:58;;;;;;;13.77;6.83;;;11.30;99.90;;;;;;5035801;28;20936;-71
2021/09/21 06:02:24;;;;;;;6.77;6.00;;;11.30;99.90;;;;;;5041223;28;20292;-71
2021/09/21 06:04:50;;;;;;;9.20;6.50;;;11.40;99.90;;;;;;5057728;28;20195;-71
2021/09/21 06:07:16;;;;;;;7.50;6.60;;;11.40;99.90;;;;;;5022868;28;20245;-72
2021/09/21 06:09:41;;;;;;;10.23;8.30;;;11.50;99.90;;;;;;5037085;28;20401;-71
2021/09/21 06:12:07;;;;;;;10.67;8.10;;;11.40;99.90;;;;;;5038121;28;20244;-71
2021/09/21 06:14:32;;;;;;;9.00;7.53;;;11.40;99.90;;;;;;5036001;28;20245;-71
2021/09/21 06:16:58;;;;;;;8.67;7.77;;;11.30;99.90;;;;;;5026910;28;20179;-71
2021/09/21 06:19:24;;;;;;;8.17;6.80;;;11.30;99.90;;;;;;5017540;28;20176;-71
2021/09/21 06:21:49;;;;;;;11.27;6.80;;;11.30;99.90;;;;;;5018048;28;20688;-71
2021/09/21 06:24:15;;;;;;;9.33;7.97;;;11.40;99.90;;;;;;5017569;28;20286;-71
2021/09/21 06:26:40;;;;;;;8.57;7.40;;;11.40;99.90;;;;;;5018773;28;20175;-71
2021/09/21 06:29:06;;;;;;;7.10;6.40;;;11.40;99.90;;;;;;5016811;28;20196;-70
2021/09/21 06:31:31;;;;;;;8.90;7.20;;;11.50;99.90;;;;;;5000291;28;20199;-71
2021/09/21 06:33:57;;;;;;;9.07;6.30;;;11.60;99.90;;;;;;5016745;28;20182;-72
2021/09/21 06:36:22;;;;;;;7.77;6.97;;;11.60;99.90;;;;;;5016336;28;20649;-71
2021/09/21 06:38:48;;;;;;;8.80;7.13;;;11.60;99.90;;;;;;5018046;28;20542;-70
2021/09/21 06:41:13;;;;;;;11.33;7.37;;;11.60;99.90;;;;;;5018166;28;20713;-70
2021/09/21 06:43:39;;;;;;;9.47;7.27;;;11.70;99.90;;;;;;5030170;28;20175;-72
2021/09/21 06:46:04;;;;;;;9.87;7.77;;;11.70;99.90;;;;;;5036243;28;20171;-71
2021/09/21 06:48:30;;;;;;;9.07;6.73;;;11.80;99.90;;;;;;5036876;28;20187;-71
2021/09/21 06:50:56;;;;;;;10.80;8.00;;;11.80;99.90;;;;;;5037080;28;20186;-71
2021/09/21 06:53:22;;;;;;;8.50;7.70;;;11.90;99.90;;;;;;5035614;28;20611;-71
2021/09/21 06:55:48;;;;;;;8.93;7.33;;;11.90;99.90;;;;;;5036675;28;20538;-70
2021/09/21 06:58:13;;;;;;;13.07;8.10;;;11.90;99.90;;;;;;5036796;28;20175;-70
2021/09/21 07:00:41;;;;;;;8.50;7.37;;;12.00;99.90;;;;;;5049153;28;20531;-71
2021/09/21 07:03:07;;;;;;;9.07;7.83;;;12.00;99.90;;;;;;5035740;28;20179;-71
2021/09/21 07:05:33;;;;;;;17.60;8.27;;;12.00;99.90;;;;;;5035094;28;20908;-70
2021/09/21 07:07:59;;;;;;;9.87;6.87;;;12.10;99.90;;;;;;5036387;28;20417;-72
2021/09/21 07:10:25;;;;;;;8.40;7.00;;;12.10;99.90;;;;;;5043090;28;20429;-71
2021/09/21 07:12:50;;;;;;;7.83;7.13;;;12.10;99.90;;;;;;5043884;28;20227;-72
2021/09/21 07:15:21;;;;;;;9.67;7.33;;;12.10;99.90;;;;;;5030273;28;20572;-72
2021/09/21 07:17:47;;;;;;;12.23;7.80;;;12.20;99.90;;;;;;5025807;28;20191;-72
2021/09/21 07:20:13;;;;;;;8.43;6.80;;;12.30;99.90;;;;;;5035290;28;20457;-71
2021/09/21 07:22:38;;;;;;;16.00;7.10;;;12.30;99.90;;;;;;5034547;28;20174;-71
2021/09/21 07:25:04;;;;;;;8.60;7.20;;;12.40;99.90;;;;;;5032751;28;20181;-71
2021/09/21 07:27:30;;;;;;;9.50;7.80;;;12.50;99.90;;;;;;5032753;28;20175;-72
2021/09/21 07:29:55;;;;;;;10.07;7.00;;;12.50;99.90;;;;;;5037583;28;20456;-71
2021/09/21 07:32:21;;;;;;;9.87;7.37;;;12.60;99.90;;;;;;5035982;28;20198;-71
2021/09/21 07:34:46;;;;;;;10.33;7.60;;;12.70;99.90;;;;;;5035778;28;20648;-71
2021/09/21 07:37:13;;;;;;;9.40;6.80;;;12.80;99.90;;;;;;5010486;28;20190;-72
2021/09/21 07:39:39;;;;;;;9.40;7.00;;;12.80;99.90;;;;;;5034635;28;20624;-71
2021/09/21 07:42:04;;;;;;;9.80;8.10;;;12.90;99.90;;;;;;5035579;28;20555;-72
2021/09/21 07:44:30;;;;;;;8.70;7.20;;;13.00;99.90;;;;;;5035654;28;20961;-72
2021/09/21 07:46:58;;;;;;;14.87;9.10;;;13.10;99.90;;;;;;5029707;28;20266;-70
2021/09/21 07:49:24;;;;;;;10.03;8.23;;;13.20;99.90;;;;;;5032532;28;20433;-71
2021/09/21 07:51:50;;;;;;;9.57;7.27;;;13.30;99.90;;;;;;5036064;28;20449;-70
2021/09/21 07:54:15;;;;;;;10.30;7.53;;;13.50;99.90;;;;;;5036434;28;20941;-71
2021/09/21 07:56:41;;;;;;;9.95;7.03;;;13.60;99.90;;;;;;5036661;28;20417;-71
2021/09/21 07:59:07;;;;;;;7.97;7.03;;;13.70;99.90;;;;;;5036421;28;20232;-72
2021/09/21 08:01:36;;;;;;;6.93;6.20;;;13.80;99.90;;;;;;5039550;28;20229;-72
2021/09/21 08:04:02;;;;;;;7.37;5.87;;;13.80;99.90;;;;;;5036744;28;20414;-72
2021/09/21 08:06:28;;;;;;;6.70;6.10;;;13.90;99.90;;;;;;5035229;28;20906;-71
2021/09/21 08:08:53;;;;;;;9.70;6.10;;;14.10;99.90;;;;;;5034678;28;20424;-71
2021/09/21 08:11:20;;;;;;;9.47;5.57;;;14.20;99.90;;;;;;5035231;28;20226;-72
2021/09/21 08:13:45;;;;;;;6.87;5.43;;;14.30;99.90;;;;;;5034122;28;20179;-71
2021/09/21 08:16:11;;;;;;;7.60;5.50;;;14.40;99.90;;;;;;5035183;28;20432;-71
2021/09/21 08:18:36;;;;;;;5.30;4.50;;;14.50;99.90;;;;;;5029724;28;20660;-71
2021/09/21 08:21:02;;;;;;;6.33;4.67;;;14.60;99.90;;;;;;5019106;28;20623;-71
2021/09/21 08:23:28;;;;;;;3.97;3.40;;;14.70;99.90;;;;;;5031213;28;20186;-71
2021/09/21 08:25:54;;;;;;;5.17;4.30;;;14.70;99.70;;;;;;5036650;28;20233;-71
2021/09/21 08:28:20;;;;;;;6.00;4.07;;;14.70;98.50;;;;;;5038116;28;20182;-70
2021/09/21 08:30:45;;;;;;;4.43;3.60;;;14.80;99.20;;;;;;5030808;28;20222;-72
2021/09/21 08:33:11;;;;;;;3.33;2.90;;;14.90;98.60;;;;;;5058807;28;20261;-72
2021/09/21 08:35:37;;;;;;;4.03;3.50;;;15.00;98.40;;;;;;5055693;28;20179;-71
2021/09/21 08:38:03;;;;;;;3.50;3.20;;;15.00;96.80;;;;;;5040979;28;20644;-72
2021/09/21 08:40:30;;;;;;;3.97;3.40;;;15.10;96.20;;;;;;5046602;28;20222;-72
2021/09/21 08:42:56;;;;;;;3.10;2.90;;;15.20;96.40;;;;;;5046346;28;20470;-71
2021/09/21 08:45:21;;;;;;;3.83;3.00;;;15.30;96.20;;;;;;5058665;28;20428;-72
2021/09/21 08:47:47;;;;;;;3.73;3.20;;;15.40;96.00;;;;;;5041179;28;20413;-72
2021/09/21 08:50:13;;;;;;;4.30;3.43;;;15.50;95.70;;;;;;5047830;28;20186;-72
2021/09/21 08:52:40;;;;;;;4.67;3.73;;;15.60;95.20;;;;;;5033978;28;20195;-72
2021/09/21 08:55:11;;;;;;;3.33;3.00;;;15.60;94.70;;;;;;5029031;28;20187;-72
2021/09/21 08:57:38;;;;;;;3.23;2.70;;;15.80;94.60;;;;;;5034633;28;20891;-72
2021/09/21 09:00:07;;;;;;;3.67;3.37;;;15.90;94.20;;;;;;5039727;28;20442;-72
2021/09/21 09:02:34;;;;;;;3.90;2.90;;;16.00;93.80;;;;;;5033615;28;20417;-72
2021/09/21 09:05:07;;;;;;;4.00;3.00;;;16.20;93.50;;;;;;5033289;28;20767;-71
2021/09/21 09:07:53;;;;;;;3.17;2.87;;;16.30;91.50;;;;;;5034996;28;20821;-72
2021/09/21 09:10:21;;;;;;;3.23;2.83;;;16.40;91.50;;;;;;5037439;28;20475;-72
2021/09/21 09:12:48;;;;;;;3.30;2.77;;;16.60;91.10;;;;;;5033070;28;20421;-72
2021/09/21 09:15:16;;;;;;;4.30;3.60;;;16.70;91.20;;;;;;5034948;28;20433;-72
2021/09/21 09:17:56;;;;;;;4.13;3.60;;;16.80;90.90;;;;;;5039518;28;20422;-72
2021/09/21 09:20:39;;;;;;;3.17;2.93;;;16.90;90.80;;;;;;5041010;28;20448;-72
2021/09/21 09:23:07;;;;;;;3.80;2.90;;;16.90;89.70;;;;;;5030136;28;20559;-72
2021/09/21 09:25:39;;;;;;;3.90;2.97;;;17.00;89.50;;;;;;5029543;28;20453;-72
2021/09/21 09:28:05;;;;;;;3.67;2.77;;;17.10;88.90;;;;;;5031217;28;20405;-72
2021/09/21 09:30:30;;;;;;;4.10;3.50;;;17.10;88.60;;;;;;5050949;28;20507;-72
2021/09/21 09:33:03;;;;;;;5.50;3.03;;;17.10;88.50;;;;;;5032166;28;20182;-73
2021/09/21 09:35:36;;;;;;;3.10;2.90;;;17.20;88.80;;;;;;5040109;28;20170;-71
2021/09/21 09:38:08;;;;;;;3.33;3.03;;;17.20;87.90;;;;;;5040155;28;20413;-72
2021/09/21 09:40:55;;;;;;;3.13;2.63;;;17.30;88.20;;;;;;5038652;28;20460;-72
2021/09/21 09:43:23;;;;;;;3.20;3.00;;;17.30;87.70;;;;;;5034332;28;20525;-72
2021/09/21 09:45:51;;;;;;;3.10;2.80;;;17.30;86.80;;;;;;5024499;28;20496;-73
2021/09/21 09:48:19;;;;;;;3.10;2.67;;;17.40;86.40;;;;;;5040106;28;20434;-71
2021/09/21 09:50:47;;;;;;;3.03;2.70;;;17.50;86.50;;;;;;5040272;28;20802;-73
2021/09/21 09:53:12;;;;;;;3.83;3.10;;;17.50;85.90;;;;;;5038242;28;20437;-71
2021/09/21 09:55:44;;;;;;;3.13;2.93;;;17.60;85.20;;;;;;5036392;28;20433;-71
2021/09/21 09:58:10;;;;;;;3.20;2.90;;;17.60;85.00;;;;;;5038963;28;20683;-72
2021/09/21 10:00:36;;;;;;;3.07;2.70;;;17.70;85.10;;;;;;5040925;28;20469;-71
2021/09/21 10:03:03;;;;;;;3.70;2.80;;;17.80;84.50;;;;;;5038841;28;20179;-71
2021/09/21 10:05:30;;;;;;;2.93;2.73;;;17.90;83.80;;;;;;5035186;28;20433;-72
2021/09/21 10:07:57;;;;;;;3.40;3.00;;;17.80;83.30;;;;;;5037162;28;20414;-72
2021/09/21 10:10:23;;;;;;;3.20;2.90;;;17.60;83.00;;;;;;5037005;28;20472;-72
2021/09/21 10:12:48;;;;;;;3.80;2.80;;;17.50;83.40;;;;;;5037414;28;20425;-72
2021/09/21 10:15:15;;;;;;;3.00;2.80;;;17.60;84.30;;;;;;5030532;28;20449;-72
2021/09/21 10:17:53;;;;;;;3.00;2.70;;;17.80;84.90;;;;;;5037894;28;20190;-72
2021/09/21 10:20:19;;;;;;;2.93;2.63;;;17.90;85.30;;;;;;5050528;28;20506;-72
2021/09/21 10:22:53;;;;;;;3.20;2.73;;;18.00;85.50;;;;;;5037218;28;20467;-72
2021/09/21 10:25:32;;;;;;;2.90;2.50;;;17.90;84.80;;;;;;5030920;28;20445;-74
2021/09/21 10:27:58;;;;;;;3.70;2.67;;;17.90;84.60;;;;;;5022732;28;20439;-71
2021/09/21 10:30:29;;;;;;;4.60;3.30;;;17.90;85.00;;;;;;5032812;28;20959;-71
2021/09/21 10:32:56;;;;;;;2.60;2.40;;;18.10;86.80;;;;;;5033335;28;20436;-72
2021/09/21 10:35:30;;;;;;;3.80;2.83;;;18.00;86.00;;;;;;5033699;28;20457;-72
2021/09/21 10:38:07;;;;;;;3.47;3.17;;;18.20;86.50;;;;;;5020649;28;20959;-72
2021/09/21 10:40:37;;;;;;;3.87;3.00;;;18.20;85.30;;;;;;5033965;28;20477;-72
2021/09/21 10:43:07;;;;;;;4.47;3.60;;;17.90;86.90;;;;;;5028551;28;20508;-73
2021/09/21 10:45:33;;;;;;;2.73;2.53;;;17.90;86.20;;;;;;5032305;28;20452;-71
2021/09/21 10:48:05;;;;;;;3.23;2.97;;;17.70;84.80;;;;;;5034685;28;20803;-72
2021/09/21 10:50:39;;;;;;;4.17;3.23;;;17.50;86.40;;;;;;5033318;28;20845;-71
2021/09/21 10:53:06;;;;;;;3.80;2.67;;;17.50;86.80;;;;;;5028940;28;20496;-72
2021/09/21 10:55:37;;;;;;;2.73;2.53;;;17.70;88.20;;;;;;5031102;28;20920;-71
2021/09/21 10:58:04;;;;;;;2.83;2.33;;;17.90;86.80;;;;;;5029965;28;20806;-72
2021/09/21 11:00:35;;;;;;;2.17;2.07;;;18.10;86.60;;;;;;5024495;28;20477;-72
2021/09/21 11:03:02;;;;;;;2.97;2.40;;;18.30;84.90;;;;;;5034167;28;20474;-73
2021/09/21 11:05:28;;;;;;;2.83;2.57;;;18.40;85.20;;;;;;5018678;28;20461;-72
2021/09/21 11:07:58;;;;;;;3.20;2.20;;;18.50;84.50;;;;;;5043279;28;20945;-72
2021/09/21 11:10:30;;;;;;;5.07;2.60;;;18.50;81.20;;;;;;5035699;28;20219;-71
2021/09/21 11:12:56;;;;;;;4.33;2.23;;;18.20;80.70;;;;;;5035652;28;20480;-72
2021/09/21 11:15:25;;;;;;;2.40;2.20;;;18.20;81.30;;;;;;5024641;28;20515;-73
2021/09/21 11:18:01;;;;;;;2.70;2.13;;;18.20;81.10;;;;;;5035635;28;20409;-72
2021/09/21 11:20:27;;;;;;;2.47;2.27;;;18.30;81.70;;;;;;5033919;28;20854;-72
2021/09/21 11:22:53;;;;;;;2.40;1.87;;;18.40;80.90;;;;;;5035705;28;20422;-72
2021/09/21 11:25:21;;;;;;;2.23;2.00;;;18.40;80.70;;;;;;5005092;28;20628;-72
2021/09/21 11:27:46;;;;;;;2.10;1.90;;;18.40;79.80;;;;;;5032308;28;20433;-73
2021/09/21 11:30:15;;;;;;;2.17;1.90;;;18.40;78.60;;;;;;5025131;28;20444;-73
2021/09/21 11:32:42;;;;;;;2.20;2.00;;;18.40;78.60;;;;;;5034419;28;20274;-72
2021/09/21 11:35:13;;;;;;;1.93;1.83;;;18.40;78.40;;;;;;5033725;28;20420;-73
2021/09/21 11:37:45;;;;;;;2.20;2.00;;;18.50;78.90;;;;;;5034387;28;20517;-72
2021/09/21 11:40:22;;;;;;;3.50;2.30;;;18.70;81.40;;;;;;5034744;28;20979;-71
2021/09/21 11:42:48;;;;;;;2.60;2.20;;;18.70;77.00;;;;;;5033683;28;20445;-72
2021/09/21 11:45:13;;;;;;;2.27;2.00;;;18.50;76.90;;;;;;5035145;28;20429;-72
2021/09/21 11:47:48;;;;;;;2.07;1.90;;;18.50;77.60;;;;;;5023530;28;20258;-71
2021/09/21 11:50:15;;;;;;;2.97;2.40;;;18.60;78.00;;;;;;5035611;28;20600;-74
2021/09/21 11:52:58;;;;;;;2.30;2.10;;;18.80;78.90;;;;;;5035767;28;20461;-71
2021/09/21 11:55:28;;;;;;;3.30;1.97;;;18.80;78.10;;;;;;5054816;28;20411;-72
2021/09/21 11:57:55;;;;;;;2.80;2.20;;;18.90;79.40;;;;;;5019817;28;20910;-71
2021/09/21 12:00:30;;;;;;;2.10;1.83;;;19.00;79.40;;;;;;5044783;28;20458;-72
2021/09/21 12:02:57;;;;;;;2.70;2.37;;;18.90;76.50;;;;;;5050052;28;20867;-71
2021/09/21 12:05:24;;;;;;;2.30;2.10;;;19.00;76.80;;;;;;5039571;28;20442;-71
2021/09/21 12:07:51;;;;;;;3.47;2.30;;;19.00;77.20;;;;;;5052229;28;20421;-72
2021/09/21 12:10:17;;;;;;;3.50;3.20;;;19.10;78.00;;;;;;5055985;28;20456;-71
2021/09/21 12:12:43;;;;;;;3.00;2.40;;;19.20;78.30;;;;;;5039317;28;20953;-71
2021/09/21 12:15:12;;;;;;;2.00;1.90;;;19.20;77.00;;;;;;5036300;28;20438;-71
2021/09/21 12:17:46;;;;;;;1.90;1.80;;;19.10;75.90;;;;;;5035392;28;20336;-72
2021/09/21 12:20:12;;;;;;;2.07;1.97;;;19.10;77.90;;;;;;5007603;28;20437;-72
2021/09/21 12:22:49;;;;;;;2.17;2.00;;;19.00;78.20;;;;;;5035058;28;20420;-72
2021/09/21 12:25:15;;;;;;;3.30;2.43;;;19.20;80.30;;;;;;5036408;28;20416;-72
2021/09/21 12:27:41;;;;;;;2.10;1.90;;;19.20;79.20;;;;;;5034414;28;20766;-72
2021/09/21 12:30:08;;;;;;;2.43;2.23;;;19.20;78.30;;;;;;5028075;28;20210;-72
2021/09/21 12:32:36;;;;;;;3.53;2.00;;;19.10;76.00;;;;;;5025309;28;20214;-72
2021/09/21 12:35:07;;;;;;;2.33;1.93;;;19.20;77.50;;;;;;5026241;28;20941;-72
2021/09/21 12:37:40;;;;;;;4.43;3.00;;;18.90;77.00;;;;;;5034503;28;20479;-72
2021/09/21 12:40:14;;;;;;;5.93;4.83;;;19.00;77.50;;;;;;5033642;28;20430;-72
2021/09/21 12:42:43;;;;;;;2.37;2.17;;;19.00;78.80;;;;;;5034256;28;20418;-72
2021/09/21 12:45:10;;;;;;;6.13;4.13;;;19.00;76.30;;;;;;5035271;28;20417;-73
2021/09/21 12:47:40;;;;;;;5.93;3.70;;;18.90;77.30;;;;;;5033767;28;20441;-72
2021/09/21 12:50:18;;;;;;;3.47;2.97;;;18.80;77.20;;;;;;5034005;28;20430;-72
2021/09/21 12:52:55;;;;;;;2.83;2.40;;;18.90;77.30;;;;;;5033143;28;20441;-72
2021/09/21 12:55:32;;;;;;;4.40;2.13;;;18.90;77.10;;;;;;5029340;28;20417;-72